sensor_id;sensor_type;location;lat;lon;timestamp;temperature;humidity
32600;DHT22;19277;51.778;7.912;2023-04-16T00:01:00;21.00;66.80
32600;DHT22;19277;51.778;7.912;2023-04-16T00:03:25;21.00;66.70
32600;DHT22;19277;51.778;7.912;2023-04-16T00:05:51;21.00;66.70
32600;DHT22;19277;51.778;7.912;2023-04-16T00:08:20;21.00;66.70
32600;DHT22;19277;51.778;7.912;2023-04-16T00:10:46;21.10;66.70
32600;DHT22;19277;51.778;7.912;2023-04-16T00:13:11;21.10;66.60
32600;DHT22;19277;51.778;7.912;2023-04-16T00:15:37;21.10;66.60
32600;DHT22;19277;51.778;7.912;2023-04-16T00:18:02;21.10;66.60
32600;DHT22;19277;51.778;7.912;2023-04-16T00:20:28;21.10;66.60
32600;DHT22;19277;51.778;7.912;2023-04-16T00:22:53;21.10;66.60
32600;DHT22;19277;51.778;7.912;2023-04-16T00:25:19;21.20;66.60
32600;DHT22;19277;51.778;7.912;2023-04-16T00:27:45;21.20;66.50
32600;DHT22;19277;51.778;7.912;2023-04-16T00:30:10;21.20;66.50
32600;DHT22;19277;51.778;7.912;2023-04-16T00:32:36;21.20;66.70
32600;DHT22;19277;51.778;7.912;2023-04-16T00:35:01;21.20;66.90
32600;DHT22;19277;51.778;7.912;2023-04-16T00:37:27;21.20;66.80
32600;DHT22;19277;51.778;7.912;2023-04-16T00:39:53;21.20;66.90
32600;DHT22;19277;51.778;7.912;2023-04-16T00:42:18;21.20;66.90
32600;DHT22;19277;51.778;7.912;2023-04-16T00:44:44;21.20;66.90
32600;DHT22;19277;51.778;7.912;2023-04-16T00:47:10;21.20;66.80
32600;DHT22;19277;51.778;7.912;2023-04-16T00:49:35;21.30;66.80
32600;DHT22;19277;51.778;7.912;2023-04-16T00:52:01;21.30;66.90
32600;DHT22;19277;51.778;7.912;2023-04-16T00:54:27;21.30;66.90
32600;DHT22;19277;51.778;7.912;2023-04-16T00:56:53;21.30;66.90
32600;DHT22;19277;51.778;7.912;2023-04-16T00:59:20;21.30;67.00
32600;DHT22;19277;51.778;7.912;2023-04-16T01:01:46;21.30;66.90
32600;DHT22;19277;51.778;7.912;2023-04-16T01:04:11;21.30;67.00
32600;DHT22;19277;51.778;7.912;2023-04-16T01:06:37;21.30;66.90
32600;DHT22;19277;51.778;7.912;2023-04-16T01:09:02;21.40;66.90
32600;DHT22;19277;51.778;7.912;2023-04-16T01:11:28;21.30;66.90
32600;DHT22;19277;51.778;7.912;2023-04-16T01:13:54;21.40;66.90
32600;DHT22;19277;51.778;7.912;2023-04-16T01:16:19;21.40;66.90
32600;DHT22;19277;51.778;7.912;2023-04-16T01:18:45;21.40;66.90
32600;DHT22;19277;51.778;7.912;2023-04-16T01:21:10;21.40;67.00
32600;DHT22;19277;51.778;7.912;2023-04-16T01:23:36;21.40;66.90
32600;DHT22;19277;51.778;7.912;2023-04-16T01:26:01;21.40;66.90
32600;DHT22;19277;51.778;7.912;2023-04-16T01:28:27;21.40;66.90
32600;DHT22;19277;51.778;7.912;2023-04-16T01:30:53;21.40;66.90
32600;DHT22;19277;51.778;7.912;2023-04-16T01:33:19;21.40;66.90
32600;DHT22;19277;51.778;7.912;2023-04-16T01:35:45;21.40;67.00
32600;DHT22;19277;51.778;7.912;2023-04-16T01:38:10;21.40;67.10
32600;DHT22;19277;51.778;7.912;2023-04-16T01:40:37;21.40;67.10
32600;DHT22;19277;51.778;7.912;2023-04-16T01:43:03;21.40;67.10
32600;DHT22;19277;51.778;7.912;2023-04-16T01:45:30;21.40;67.10
32600;DHT22;19277;51.778;7.912;2023-04-16T01:47:56;21.40;67.10
32600;DHT22;19277;51.778;7.912;2023-04-16T01:50:22;21.40;67.10
32600;DHT22;19277;51.778;7.912;2023-04-16T01:52:48;21.40;67.10
32600;DHT22;19277;51.778;7.912;2023-04-16T01:55:13;21.40;67.10
32600;DHT22;19277;51.778;7.912;2023-04-16T01:57:40;21.40;67.10
32600;DHT22;19277;51.778;7.912;2023-04-16T02:00:06;21.50;67.10
32600;DHT22;19277;51.778;7.912;2023-04-16T02:02:33;21.50;67.20
32600;DHT22;19277;51.778;7.912;2023-04-16T02:04:59;21.50;67.20
32600;DHT22;19277;51.778;7.912;2023-04-16T02:07:25;21.50;67.20
32600;DHT22;19277;51.778;7.912;2023-04-16T02:09:51;21.50;67.20
32600;DHT22;19277;51.778;7.912;2023-04-16T02:12:17;21.50;67.20
32600;DHT22;19277;51.778;7.912;2023-04-16T02:14:43;21.50;67.20
32600;DHT22;19277;51.778;7.912;2023-04-16T02:17:09;21.50;67.20
32600;DHT22;19277;51.778;7.912;2023-04-16T02:19:35;21.50;67.30
32600;DHT22;19277;51.778;7.912;2023-04-16T02:22:00;21.50;67.30
32600;DHT22;19277;51.778;7.912;2023-04-16T02:24:26;21.50;67.30
32600;DHT22;19277;51.778;7.912;2023-04-16T02:26:52;21.50;67.50
32600;DHT22;19277;51.778;7.912;2023-04-16T02:29:18;21.50;67.90
32600;DHT22;19277;51.778;7.912;2023-04-16T02:31:44;21.50;67.50
32600;DHT22;19277;51.778;7.912;2023-04-16T02:34:10;21.50;67.50
32600;DHT22;19277;51.778;7.912;2023-04-16T02:36:36;21.50;67.60
32600;DHT22;19277;51.778;7.912;2023-04-16T02:39:02;21.50;67.50
32600;DHT22;19277;51.778;7.912;2023-04-16T02:41:27;21.50;67.60
32600;DHT22;19277;51.778;7.912;2023-04-16T02:43:53;21.40;67.60
32600;DHT22;19277;51.778;7.912;2023-04-16T02:46:18;21.50;67.60
32600;DHT22;19277;51.778;7.912;2023-04-16T02:48:44;21.50;67.70
32600;DHT22;19277;51.778;7.912;2023-04-16T02:51:10;21.50;67.70
32600;DHT22;19277;51.778;7.912;2023-04-16T02:53:35;21.50;67.70
32600;DHT22;19277;51.778;7.912;2023-04-16T02:56:01;21.50;67.70
32600;DHT22;19277;51.778;7.912;2023-04-16T02:58:26;21.50;67.70
32600;DHT22;19277;51.778;7.912;2023-04-16T03:00:53;21.50;67.70
32600;DHT22;19277;51.778;7.912;2023-04-16T03:03:19;21.50;67.70
32600;DHT22;19277;51.778;7.912;2023-04-16T03:05:46;21.50;68.40
32600;DHT22;19277;51.778;7.912;2023-04-16T03:08:11;21.40;67.70
32600;DHT22;19277;51.778;7.912;2023-04-16T03:10:37;21.50;67.90
32600;DHT22;19277;51.778;7.912;2023-04-16T03:13:03;21.40;67.80
32600;DHT22;19277;51.778;7.912;2023-04-16T03:15:29;21.50;68.00
32600;DHT22;19277;51.778;7.912;2023-04-16T03:17:56;21.50;67.90
32600;DHT22;19277;51.778;7.912;2023-04-16T03:20:22;21.40;67.90
32600;DHT22;19277;51.778;7.912;2023-04-16T03:22:48;21.40;67.90
32600;DHT22;19277;51.778;7.912;2023-04-16T03:25:13;21.40;67.80
32600;DHT22;19277;51.778;7.912;2023-04-16T03:27:39;21.50;67.90
32600;DHT22;19277;51.778;7.912;2023-04-16T03:30:06;21.40;67.80
32600;DHT22;19277;51.778;7.912;2023-04-16T03:32:32;21.40;67.90
32600;DHT22;19277;51.778;7.912;2023-04-16T03:34:58;21.40;67.80
32600;DHT22;19277;51.778;7.912;2023-04-16T03:37:23;21.50;68.00
32600;DHT22;19277;51.778;7.912;2023-04-16T03:39:49;21.40;67.90
32600;DHT22;19277;51.778;7.912;2023-04-16T03:42:14;21.50;67.90
32600;DHT22;19277;51.778;7.912;2023-04-16T03:44:40;21.40;67.90
32600;DHT22;19277;51.778;7.912;2023-04-16T03:47:05;21.40;68.10
32600;DHT22;19277;51.778;7.912;2023-04-16T03:49:31;21.40;68.00
32600;DHT22;19277;51.778;7.912;2023-04-16T03:51:56;21.40;67.90
32600;DHT22;19277;51.778;7.912;2023-04-16T03:54:22;21.40;67.90
32600;DHT22;19277;51.778;7.912;2023-04-16T03:56:48;21.40;67.90
32600;DHT22;19277;51.778;7.912;2023-04-16T03:59:13;21.50;67.80
32600;DHT22;19277;51.778;7.912;2023-04-16T04:01:39;21.40;67.80
32600;DHT22;19277;51.778;7.912;2023-04-16T04:04:04;21.40;67.90
32600;DHT22;19277;51.778;7.912;2023-04-16T04:06:30;21.40;67.90
32600;DHT22;19277;51.778;7.912;2023-04-16T04:08:57;21.40;67.90
32600;DHT22;19277;51.778;7.912;2023-04-16T04:11:22;21.40;67.90
32600;DHT22;19277;51.778;7.912;2023-04-16T04:13:48;21.40;67.90
32600;DHT22;19277;51.778;7.912;2023-04-16T04:16:13;21.40;67.90
32600;DHT22;19277;51.778;7.912;2023-04-16T04:18:39;21.40;68.30
32600;DHT22;19277;51.778;7.912;2023-04-16T04:21:08;21.40;68.10
32600;DHT22;19277;51.778;7.912;2023-04-16T04:23:35;21.40;68.00
32600;DHT22;19277;51.778;7.912;2023-04-16T04:26:00;21.40;68.20
32600;DHT22;19277;51.778;7.912;2023-04-16T04:28:31;21.40;68.30
32600;DHT22;19277;51.778;7.912;2023-04-16T04:30:57;21.50;68.20
32600;DHT22;19277;51.778;7.912;2023-04-16T04:33:26;21.40;68.20
32600;DHT22;19277;51.778;7.912;2023-04-16T04:35:53;21.40;68.20
32600;DHT22;19277;51.778;7.912;2023-04-16T04:38:19;21.50;68.20
32600;DHT22;19277;51.778;7.912;2023-04-16T04:40:47;21.50;68.10
32600;DHT22;19277;51.778;7.912;2023-04-16T04:43:12;21.50;68.20
32600;DHT22;19277;51.778;7.912;2023-04-16T04:45:38;21.50;68.60
32600;DHT22;19277;51.778;7.912;2023-04-16T04:48:03;21.50;68.10
32600;DHT22;19277;51.778;7.912;2023-04-16T04:50:29;21.50;68.20
32600;DHT22;19277;51.778;7.912;2023-04-16T04:52:54;21.50;68.20
32600;DHT22;19277;51.778;7.912;2023-04-16T04:55:20;21.50;68.10
32600;DHT22;19277;51.778;7.912;2023-04-16T04:57:46;21.60;68.20
32600;DHT22;19277;51.778;7.912;2023-04-16T05:00:11;21.50;68.20
32600;DHT22;19277;51.778;7.912;2023-04-16T05:02:37;21.50;68.20
32600;DHT22;19277;51.778;7.912;2023-04-16T05:05:03;21.50;68.20
32600;DHT22;19277;51.778;7.912;2023-04-16T05:07:29;21.50;68.20
32600;DHT22;19277;51.778;7.912;2023-04-16T05:09:55;21.60;68.40
32600;DHT22;19277;51.778;7.912;2023-04-16T05:12:20;21.60;68.30
32600;DHT22;19277;51.778;7.912;2023-04-16T05:14:46;21.60;68.40
32600;DHT22;19277;51.778;7.912;2023-04-16T05:17:11;21.60;68.30
32600;DHT22;19277;51.778;7.912;2023-04-16T05:19:37;21.60;68.30
32600;DHT22;19277;51.778;7.912;2023-04-16T05:22:03;21.60;68.30
32600;DHT22;19277;51.778;7.912;2023-04-16T05:24:28;21.60;68.30
32600;DHT22;19277;51.778;7.912;2023-04-16T05:26:54;21.60;68.20
32600;DHT22;19277;51.778;7.912;2023-04-16T05:29:21;21.60;68.50
32600;DHT22;19277;51.778;7.912;2023-04-16T05:31:46;21.60;68.40
32600;DHT22;19277;51.778;7.912;2023-04-16T05:34:12;21.60;68.50
32600;DHT22;19277;51.778;7.912;2023-04-16T05:36:37;21.60;68.50
32600;DHT22;19277;51.778;7.912;2023-04-16T05:39:03;21.60;68.40
32600;DHT22;19277;51.778;7.912;2023-04-16T05:41:28;21.60;68.30
32600;DHT22;19277;51.778;7.912;2023-04-16T05:43:54;21.70;68.40
32600;DHT22;19277;51.778;7.912;2023-04-16T05:46:19;21.70;68.30
32600;DHT22;19277;51.778;7.912;2023-04-16T05:48:45;21.70;68.80
32600;DHT22;19277;51.778;7.912;2023-04-16T05:51:11;21.70;68.40
32600;DHT22;19277;51.778;7.912;2023-04-16T05:53:36;21.70;68.40
32600;DHT22;19277;51.778;7.912;2023-04-16T05:56:02;21.70;68.20
32600;DHT22;19277;51.778;7.912;2023-04-16T05:58:27;21.70;68.30
32600;DHT22;19277;51.778;7.912;2023-04-16T06:00:53;21.70;68.30
32600;DHT22;19277;51.778;7.912;2023-04-16T06:03:18;21.70;68.30
32600;DHT22;19277;51.778;7.912;2023-04-16T06:05:44;21.70;68.30
32600;DHT22;19277;51.778;7.912;2023-04-16T06:08:10;21.70;68.30
32600;DHT22;19277;51.778;7.912;2023-04-16T06:10:35;21.70;68.30
32600;DHT22;19277;51.778;7.912;2023-04-16T06:13:01;21.70;68.30
32600;DHT22;19277;51.778;7.912;2023-04-16T06:15:26;21.70;68.20
32600;DHT22;19277;51.778;7.912;2023-04-16T06:17:54;21.70;68.10
32600;DHT22;19277;51.778;7.912;2023-04-16T06:20:20;21.70;68.10
32600;DHT22;19277;51.778;7.912;2023-04-16T06:22:45;21.70;68.10
32600;DHT22;19277;51.778;7.912;2023-04-16T06:25:11;21.70;68.10
32600;DHT22;19277;51.778;7.912;2023-04-16T06:27:37;21.70;68.30
32600;DHT22;19277;51.778;7.912;2023-04-16T06:30:02;21.70;68.30
32600;DHT22;19277;51.778;7.912;2023-04-16T06:32:28;21.80;68.50
32600;DHT22;19277;51.778;7.912;2023-04-16T06:34:54;21.80;68.40
32600;DHT22;19277;51.778;7.912;2023-04-16T06:37:20;21.80;68.30
32600;DHT22;19277;51.778;7.912;2023-04-16T06:39:46;21.80;68.30
32600;DHT22;19277;51.778;7.912;2023-04-16T06:42:11;21.80;68.30
32600;DHT22;19277;51.778;7.912;2023-04-16T06:44:37;21.80;68.30
32600;DHT22;19277;51.778;7.912;2023-04-16T06:47:03;21.80;68.30
32600;DHT22;19277;51.778;7.912;2023-04-16T06:49:28;21.80;68.40
32600;DHT22;19277;51.778;7.912;2023-04-16T06:51:54;21.80;68.30
32600;DHT22;19277;51.778;7.912;2023-04-16T06:54:19;21.80;68.50
32600;DHT22;19277;51.778;7.912;2023-04-16T06:56:45;21.80;68.50
32600;DHT22;19277;51.778;7.912;2023-04-16T06:59:10;21.80;68.50
32600;DHT22;19277;51.778;7.912;2023-04-16T07:01:36;21.80;68.50
32600;DHT22;19277;51.778;7.912;2023-04-16T07:04:01;21.80;68.50
32600;DHT22;19277;51.778;7.912;2023-04-16T07:06:27;21.80;68.60
32600;DHT22;19277;51.778;7.912;2023-04-16T07:08:53;21.80;68.70
32600;DHT22;19277;51.778;7.912;2023-04-16T07:11:19;21.80;68.60
32600;DHT22;19277;51.778;7.912;2023-04-16T07:13:45;21.80;68.60
32600;DHT22;19277;51.778;7.912;2023-04-16T07:16:10;21.80;68.70
32600;DHT22;19277;51.778;7.912;2023-04-16T07:18:36;21.90;68.80
32600;DHT22;19277;51.778;7.912;2023-04-16T07:21:02;21.90;68.70
32600;DHT22;19277;51.778;7.912;2023-04-16T07:23:28;21.90;68.60
32600;DHT22;19277;51.778;7.912;2023-04-16T07:25:54;21.90;69.00
32600;DHT22;19277;51.778;7.912;2023-04-16T07:28:19;21.90;68.40
32600;DHT22;19277;51.778;7.912;2023-04-16T07:30:45;21.90;68.30
32600;DHT22;19277;51.778;7.912;2023-04-16T07:33:10;21.90;68.30
32600;DHT22;19277;51.778;7.912;2023-04-16T07:35:36;21.90;68.30
32600;DHT22;19277;51.778;7.912;2023-04-16T07:38:02;21.90;68.40
32600;DHT22;19277;51.778;7.912;2023-04-16T07:40:27;21.90;68.90
32600;DHT22;19277;51.778;7.912;2023-04-16T07:42:54;21.90;68.50
32600;DHT22;19277;51.778;7.912;2023-04-16T07:45:20;21.90;68.50
32600;DHT22;19277;51.778;7.912;2023-04-16T07:47:46;21.90;68.70
32600;DHT22;19277;51.778;7.912;2023-04-16T07:50:12;21.90;69.30
32600;DHT22;19277;51.778;7.912;2023-04-16T07:52:37;21.90;69.30
32600;DHT22;19277;51.778;7.912;2023-04-16T07:55:06;22.00;69.40
32600;DHT22;19277;51.778;7.912;2023-04-16T07:57:32;22.00;69.10
32600;DHT22;19277;51.778;7.912;2023-04-16T07:59:58;22.00;68.90
32600;DHT22;19277;51.778;7.912;2023-04-16T08:02:23;22.00;68.60
32600;DHT22;19277;51.778;7.912;2023-04-16T08:04:49;21.90;68.40
32600;DHT22;19277;51.778;7.912;2023-04-16T08:07:14;21.90;68.20
32600;DHT22;19277;51.778;7.912;2023-04-16T08:09:52;21.90;68.10
32600;DHT22;19277;51.778;7.912;2023-04-16T08:12:18;21.90;67.90
32600;DHT22;19277;51.778;7.912;2023-04-16T08:14:45;22.00;67.80
32600;DHT22;19277;51.778;7.912;2023-04-16T08:17:12;21.90;67.60
32600;DHT22;19277;51.778;7.912;2023-04-16T08:19:37;21.90;67.50
32600;DHT22;19277;51.778;7.912;2023-04-16T08:22:03;22.00;67.40
32600;DHT22;19277;51.778;7.912;2023-04-16T08:24:29;22.00;67.40
32600;DHT22;19277;51.778;7.912;2023-04-16T08:26:54;22.00;67.30
32600;DHT22;19277;51.778;7.912;2023-04-16T08:29:20;22.00;67.20
32600;DHT22;19277;51.778;7.912;2023-04-16T08:31:46;22.00;67.10
32600;DHT22;19277;51.778;7.912;2023-04-16T08:34:11;22.00;67.00
32600;DHT22;19277;51.778;7.912;2023-04-16T08:36:37;22.00;67.00
32600;DHT22;19277;51.778;7.912;2023-04-16T08:39:04;22.00;66.80
32600;DHT22;19277;51.778;7.912;2023-04-16T08:41:31;22.00;66.80
32600;DHT22;19277;51.778;7.912;2023-04-16T08:43:59;22.00;66.70
32600;DHT22;19277;51.778;7.912;2023-04-16T08:46:28;22.00;66.70
32600;DHT22;19277;51.778;7.912;2023-04-16T08:48:58;22.00;66.60
32600;DHT22;19277;51.778;7.912;2023-04-16T08:51:25;22.00;66.60
32600;DHT22;19277;51.778;7.912;2023-04-16T08:54:01;22.00;66.60
32600;DHT22;19277;51.778;7.912;2023-04-16T08:56:28;22.00;66.50
32600;DHT22;19277;51.778;7.912;2023-04-16T08:58:55;22.00;66.50
32600;DHT22;19277;51.778;7.912;2023-04-16T09:01:23;22.00;66.50
32600;DHT22;19277;51.778;7.912;2023-04-16T09:03:50;22.00;66.50
32600;DHT22;19277;51.778;7.912;2023-04-16T09:06:16;22.00;66.50
32600;DHT22;19277;51.778;7.912;2023-04-16T09:08:47;22.00;66.40
32600;DHT22;19277;51.778;7.912;2023-04-16T09:11:16;22.00;66.30
32600;DHT22;19277;51.778;7.912;2023-04-16T09:13:42;22.00;66.20
32600;DHT22;19277;51.778;7.912;2023-04-16T09:16:08;22.00;66.10
32600;DHT22;19277;51.778;7.912;2023-04-16T09:18:35;22.10;66.10
32600;DHT22;19277;51.778;7.912;2023-04-16T09:21:01;22.10;66.10
32600;DHT22;19277;51.778;7.912;2023-04-16T09:23:28;22.10;66.00
32600;DHT22;19277;51.778;7.912;2023-04-16T09:25:54;22.10;65.90
32600;DHT22;19277;51.778;7.912;2023-04-16T09:28:40;22.20;66.40
32600;DHT22;19277;51.778;7.912;2023-04-16T09:31:13;22.20;65.70
32600;DHT22;19277;51.778;7.912;2023-04-16T09:33:39;22.30;65.50
32600;DHT22;19277;51.778;7.912;2023-04-16T09:36:05;22.40;65.30
32600;DHT22;19277;51.778;7.912;2023-04-16T09:38:48;22.40;65.10
32600;DHT22;19277;51.778;7.912;2023-04-16T09:41:14;22.50;65.00
32600;DHT22;19277;51.778;7.912;2023-04-16T09:43:53;22.50;64.80
32600;DHT22;19277;51.778;7.912;2023-04-16T09:46:36;22.60;64.80
32600;DHT22;19277;51.778;7.912;2023-04-16T09:49:14;22.50;64.70
32600;DHT22;19277;51.778;7.912;2023-04-16T09:51:45;22.60;64.70
32600;DHT22;19277;51.778;7.912;2023-04-16T09:54:12;22.60;64.60
32600;DHT22;19277;51.778;7.912;2023-04-16T09:56:43;22.60;64.50
32600;DHT22;19277;51.778;7.912;2023-04-16T09:59:20;22.50;64.50
32600;DHT22;19277;51.778;7.912;2023-04-16T10:01:46;22.60;64.50
32600;DHT22;19277;51.778;7.912;2023-04-16T10:04:13;22.50;64.50
32600;DHT22;19277;51.778;7.912;2023-04-16T10:06:39;22.50;64.60
32600;DHT22;19277;51.778;7.912;2023-04-16T10:09:06;22.50;64.70
32600;DHT22;19277;51.778;7.912;2023-04-16T10:11:33;22.40;64.70
32600;DHT22;19277;51.778;7.912;2023-04-16T10:13:59;22.40;64.80
32600;DHT22;19277;51.778;7.912;2023-04-16T10:16:25;22.30;64.90
32600;DHT22;19277;51.778;7.912;2023-04-16T10:18:52;22.30;64.90
32600;DHT22;19277;51.778;7.912;2023-04-16T10:21:18;22.30;64.80
32600;DHT22;19277;51.778;7.912;2023-04-16T10:23:44;22.30;64.90
32600;DHT22;19277;51.778;7.912;2023-04-16T10:26:10;22.30;64.90
32600;DHT22;19277;51.778;7.912;2023-04-16T10:28:36;22.30;64.90
32600;DHT22;19277;51.778;7.912;2023-04-16T10:31:07;22.30;65.30
32600;DHT22;19277;51.778;7.912;2023-04-16T10:33:34;22.30;65.70
32600;DHT22;19277;51.778;7.912;2023-04-16T10:38:48;22.30;65.90
32600;DHT22;19277;51.778;7.912;2023-04-16T10:41:14;22.30;66.10
32600;DHT22;19277;51.778;7.912;2023-04-16T10:43:45;22.30;66.30
32600;DHT22;19277;51.778;7.912;2023-04-16T10:46:21;22.30;66.40
32600;DHT22;19277;51.778;7.912;2023-04-16T10:48:48;22.30;66.50
32600;DHT22;19277;51.778;7.912;2023-04-16T10:51:32;22.30;66.60
32600;DHT22;19277;51.778;7.912;2023-04-16T10:56:33;22.40;67.10
32600;DHT22;19277;51.778;7.912;2023-04-16T10:59:00;22.40;66.80
32600;DHT22;19277;51.778;7.912;2023-04-16T11:01:41;22.30;66.50
32600;DHT22;19277;51.778;7.912;2023-04-16T11:12:26;22.40;65.70
32600;DHT22;19277;51.778;7.912;2023-04-16T11:15:02;22.50;65.60
32600;DHT22;19277;51.778;7.912;2023-04-16T11:17:39;22.60;65.40
32600;DHT22;19277;51.778;7.912;2023-04-16T11:20:09;22.60;65.20
32600;DHT22;19277;51.778;7.912;2023-04-16T11:22:39;22.60;65.00
32600;DHT22;19277;51.778;7.912;2023-04-16T11:25:06;22.70;65.00
32600;DHT22;19277;51.778;7.912;2023-04-16T11:27:32;22.70;64.80
32600;DHT22;19277;51.778;7.912;2023-04-16T11:29:59;22.70;64.70
32600;DHT22;19277;51.778;7.912;2023-04-16T11:32:25;22.70;64.60
32600;DHT22;19277;51.778;7.912;2023-04-16T11:34:50;22.70;64.60
32600;DHT22;19277;51.778;7.912;2023-04-16T11:37:32;22.80;64.50
32600;DHT22;19277;51.778;7.912;2023-04-16T11:39:58;22.80;64.40
32600;DHT22;19277;51.778;7.912;2023-04-16T11:42:25;22.80;64.30
32600;DHT22;19277;51.778;7.912;2023-04-16T11:44:57;22.80;64.20
32600;DHT22;19277;51.778;7.912;2023-04-16T11:47:25;22.80;64.10
32600;DHT22;19277;51.778;7.912;2023-04-16T11:49:51;22.80;64.10
32600;DHT22;19277;51.778;7.912;2023-04-16T11:52:27;22.80;64.10
32600;DHT22;19277;51.778;7.912;2023-04-16T11:54:54;22.80;64.10
32600;DHT22;19277;51.778;7.912;2023-04-16T11:57:30;22.80;64.00
32600;DHT22;19277;51.778;7.912;2023-04-16T11:59:57;22.80;64.00
32600;DHT22;19277;51.778;7.912;2023-04-16T12:02:40;22.80;64.00
32600;DHT22;19277;51.778;7.912;2023-04-16T12:05:52;22.80;64.00
32600;DHT22;19277;51.778;7.912;2023-04-16T12:07:53;22.80;64.00
32600;DHT22;19277;51.778;7.912;2023-04-16T12:10:19;22.80;64.00
32600;DHT22;19277;51.778;7.912;2023-04-16T12:12:45;22.70;64.00
32600;DHT22;19277;51.778;7.912;2023-04-16T12:15:10;22.70;64.60
32600;DHT22;19277;51.778;7.912;2023-04-16T12:17:37;22.70;64.10
32600;DHT22;19277;51.778;7.912;2023-04-16T12:20:11;22.70;64.20
32600;DHT22;19277;51.778;7.912;2023-04-16T12:22:40;22.70;64.20
32600;DHT22;19277;51.778;7.912;2023-04-16T12:25:12;22.70;64.10
32600;DHT22;19277;51.778;7.912;2023-04-16T12:30:11;22.70;65.10
32600;DHT22;19277;51.778;7.912;2023-04-16T12:32:37;22.70;65.30
32600;DHT22;19277;51.778;7.912;2023-04-16T12:35:03;22.70;65.60
32600;DHT22;19277;51.778;7.912;2023-04-16T12:37:29;22.70;65.70
32600;DHT22;19277;51.778;7.912;2023-04-16T12:39:55;22.60;65.90
32600;DHT22;19277;51.778;7.912;2023-04-16T12:42:21;22.60;66.50
32600;DHT22;19277;51.778;7.912;2023-04-16T12:44:47;22.60;66.10
32600;DHT22;19277;51.778;7.912;2023-04-16T12:47:12;22.60;66.10
32600;DHT22;19277;51.778;7.912;2023-04-16T12:49:38;22.60;66.20
32600;DHT22;19277;51.778;7.912;2023-04-16T12:52:03;22.60;66.40
32600;DHT22;19277;51.778;7.912;2023-04-16T12:54:29;22.60;66.20
32600;DHT22;19277;51.778;7.912;2023-04-16T12:56:58;22.60;66.20
32600;DHT22;19277;51.778;7.912;2023-04-16T12:59:24;22.60;66.30
32600;DHT22;19277;51.778;7.912;2023-04-16T13:01:49;22.60;66.30
32600;DHT22;19277;51.778;7.912;2023-04-16T13:04:15;22.70;66.20
32600;DHT22;19277;51.778;7.912;2023-04-16T13:06:42;22.70;66.20
32600;DHT22;19277;51.778;7.912;2023-04-16T13:09:07;22.70;66.30
32600;DHT22;19277;51.778;7.912;2023-04-16T13:11:33;22.70;66.40
32600;DHT22;19277;51.778;7.912;2023-04-16T13:13:58;22.80;66.30
32600;DHT22;19277;51.778;7.912;2023-04-16T13:16:24;22.80;66.40
32600;DHT22;19277;51.778;7.912;2023-04-16T13:18:50;22.80;66.40
32600;DHT22;19277;51.778;7.912;2023-04-16T13:21:15;22.80;66.50
32600;DHT22;19277;51.778;7.912;2023-04-16T13:23:41;22.80;66.60
32600;DHT22;19277;51.778;7.912;2023-04-16T13:26:07;22.80;66.90
32600;DHT22;19277;51.778;7.912;2023-04-16T13:28:32;22.80;66.80
32600;DHT22;19277;51.778;7.912;2023-04-16T13:30:58;22.70;67.20
32600;DHT22;19277;51.778;7.912;2023-04-16T13:33:24;22.70;67.20
32600;DHT22;19277;51.778;7.912;2023-04-16T13:35:50;22.70;67.30
32600;DHT22;19277;51.778;7.912;2023-04-16T13:38:16;22.80;67.20
32600;DHT22;19277;51.778;7.912;2023-04-16T13:40:42;22.80;67.00
32600;DHT22;19277;51.778;7.912;2023-04-16T13:43:08;22.80;67.00
32600;DHT22;19277;51.778;7.912;2023-04-16T13:45:33;22.90;67.00
32600;DHT22;19277;51.778;7.912;2023-04-16T13:48:01;22.80;66.80
32600;DHT22;19277;51.778;7.912;2023-04-16T13:50:26;22.90;66.80
32600;DHT22;19277;51.778;7.912;2023-04-16T13:52:52;22.90;66.80
32600;DHT22;19277;51.778;7.912;2023-04-16T13:55:17;22.90;66.70
32600;DHT22;19277;51.778;7.912;2023-04-16T13:57:45;22.90;66.70
32600;DHT22;19277;51.778;7.912;2023-04-16T14:00:12;22.90;66.70
32600;DHT22;19277;51.778;7.912;2023-04-16T14:02:38;22.90;66.70
32600;DHT22;19277;51.778;7.912;2023-04-16T14:05:04;22.90;66.70
32600;DHT22;19277;51.778;7.912;2023-04-16T14:07:31;22.90;66.80
32600;DHT22;19277;51.778;7.912;2023-04-16T14:09:57;22.90;66.80
32600;DHT22;19277;51.778;7.912;2023-04-16T14:12:22;22.90;66.90
32600;DHT22;19277;51.778;7.912;2023-04-16T14:14:48;22.80;66.90
32600;DHT22;19277;51.778;7.912;2023-04-16T14:17:13;22.80;67.10
32600;DHT22;19277;51.778;7.912;2023-04-16T14:19:39;22.70;67.10
32600;DHT22;19277;51.778;7.912;2023-04-16T14:22:05;22.70;67.30
32600;DHT22;19277;51.778;7.912;2023-04-16T14:24:30;22.70;67.20
32600;DHT22;19277;51.778;7.912;2023-04-16T14:26:56;22.70;67.30
32600;DHT22;19277;51.778;7.912;2023-04-16T14:29:21;22.70;67.40
32600;DHT22;19277;51.778;7.912;2023-04-16T14:31:47;22.70;67.40
32600;DHT22;19277;51.778;7.912;2023-04-16T14:34:14;22.70;67.50
32600;DHT22;19277;51.778;7.912;2023-04-16T14:36:40;22.70;67.50
32600;DHT22;19277;51.778;7.912;2023-04-16T14:39:05;22.70;67.40
32600;DHT22;19277;51.778;7.912;2023-04-16T14:41:31;22.70;67.30
32600;DHT22;19277;51.778;7.912;2023-04-16T14:43:58;22.60;67.00
32600;DHT22;19277;51.778;7.912;2023-04-16T14:46:23;22.60;66.90
32600;DHT22;19277;51.778;7.912;2023-04-16T14:48:49;22.60;66.70
32600;DHT22;19277;51.778;7.912;2023-04-16T14:51:15;22.60;66.70
32600;DHT22;19277;51.778;7.912;2023-04-16T14:53:40;22.60;67.10
32600;DHT22;19277;51.778;7.912;2023-04-16T14:56:06;22.60;66.50
32600;DHT22;19277;51.778;7.912;2023-04-16T14:58:32;22.60;66.40
32600;DHT22;19277;51.778;7.912;2023-04-16T15:00:57;22.70;66.30
32600;DHT22;19277;51.778;7.912;2023-04-16T15:03:23;22.60;66.20
32600;DHT22;19277;51.778;7.912;2023-04-16T15:05:49;22.60;66.20
32600;DHT22;19277;51.778;7.912;2023-04-16T15:08:20;22.60;66.10
32600;DHT22;19277;51.778;7.912;2023-04-16T15:10:46;22.60;66.10
32600;DHT22;19277;51.778;7.912;2023-04-16T15:13:11;22.60;66.00
32600;DHT22;19277;51.778;7.912;2023-04-16T15:15:37;22.60;65.90
32600;DHT22;19277;51.778;7.912;2023-04-16T15:18:03;22.60;65.90
32600;DHT22;19277;51.778;7.912;2023-04-16T15:20:29;22.60;65.90
32600;DHT22;19277;51.778;7.912;2023-04-16T15:22:55;22.60;65.90
32600;DHT22;19277;51.778;7.912;2023-04-16T15:25:21;22.60;65.90
32600;DHT22;19277;51.778;7.912;2023-04-16T15:27:47;22.60;65.90
32600;DHT22;19277;51.778;7.912;2023-04-16T15:30:13;22.60;66.00
32600;DHT22;19277;51.778;7.912;2023-04-16T15:32:39;22.60;66.00
32600;DHT22;19277;51.778;7.912;2023-04-16T15:35:04;22.60;65.90
32600;DHT22;19277;51.778;7.912;2023-04-16T15:37:30;22.50;65.80
32600;DHT22;19277;51.778;7.912;2023-04-16T15:39:56;22.60;65.90
32600;DHT22;19277;51.778;7.912;2023-04-16T15:42:22;22.60;66.10